Flight Track Log - Related Links

Times and Time Zones

All times are in EDT time to prevent confusion due to time zone crossing. See the N498QS flight status page for this flight to view local times or setup timezone preferences in your user account.


Time Position Orientation Groundspeed Altitude Reporting Facility
EDT Latitude Longitude Course Direction KTS MPH feet Rate Location/Type
Tue 02:49:52 PM 41.3172 -75.7431 118° Southeast 213 245 11,000  Level New York Center
Tue 02:55:00 PM 41.1767 -75.4069 108° East  Level FlightAware Approximate
Tue 02:56:00 PM 41.1500 -75.3372 90° East  Level FlightAware Approximate
Tue 02:57:00 PM 41.1230 -75.2547 113° Southeast  Level FlightAware Approximate
Tue 02:58:00 PM 41.0924 -75.1744 114° Southeast  Level Estimated
Tue 02:59:00 PM 41.0619 -75.0941 124° Southeast  Level Estimated
Tue 03:00:00 PM 41.0312 -75.0140 114° Southeast  Level Estimated
Tue 03:00:54 PM 41.0167 -74.9667 117° Southeast 258 297 5,100  Level New York TRACON
Tue 03:01:00 PM 41.0005 -74.9339 118° Southeast  Level Estimated
Tue 03:01:53 PM 41.0000 -74.8667 102° East 261 300 5,100  Level New York TRACON
Tue 03:02:00 PM 40.9789 -74.8556 118° Southeast  Level FlightAware Approximate
Tue 03:02:54 PM 40.9833 -74.7833 105° East 260 299 4,700  Level New York TRACON
Tue 03:03:00 PM 40.9463 -74.7738 118° Southeast  Level FlightAware Approximate
Tue 03:03:54 PM 40.9500 -74.7000 118° Southeast 256 295 3,900  Level New York TRACON
Tue 03:04:00 PM 40.9136 -74.6921 118° Southeast  Level FlightAware Approximate
Tue 03:04:54 PM 40.9333 -74.6000 102° East 254 292 3,100  Level New York TRACON
Tue 03:05:00 PM 40.8804 -74.6109 123° Southeast  Level FlightAware Approximate
Tue 03:05:59 PM 40.9167 -74.5000 102° East 249 287 3,100  Level New York TRACON
Tue 03:06:00 PM 40.8457 -74.5309 118° Southeast  Level FlightAware Approximate
Tue 03:07:00 PM 40.9000 -74.4333 108° East 192 221 3,200  Level New York TRACON
Tue 03:08:00 PM 40.8833 -74.3833 114° Southeast 175 201 2,300 -1,050 Descending New York TRACON
Tue 03:09:00 PM 40.8333 -74.3833 180° South 157 181 1,100 -1,200 Descending New York TRACON
Tue 03:10:00 PM 40.7993 -74.4149 128° Southeast  Level Estimated
Tue 03:17:00 PM 40.7993 -74.4149 128° Southeast  Level Estimated
Tue 03:18:00 PM 40.7993 -74.4149 128° Southeast  Level Estimated

Login

Don't have an account? Register now (free) for customized features, flight alerts, and more!